createdAt,value
2022-10-04T00:01:51.496Z,100728.88
2022-10-04T00:04:25.496Z,100724.34
2022-10-04T00:06:58.949Z,100720.75
2022-10-04T00:09:29.269Z,100725.66
2022-10-04T00:11:57.921Z,100726.41
2022-10-04T00:14:31.442Z,100725.47
2022-10-04T00:17:08.507Z,100725.31
2022-10-04T00:19:46.912Z,100727.06
2022-10-04T00:22:23.690Z,100716.81
2022-10-04T00:25:19.459Z,100723.34
2022-10-04T00:28:29.066Z,100708.56
2022-10-04T00:31:21.769Z,100708.41
2022-10-04T00:33:52.894Z,100709.81
2022-10-04T00:36:45.368Z,100711.31
2022-10-04T00:39:25.264Z,100709.56
2022-10-04T00:42:00.408Z,100706.06
2022-10-04T00:44:34.419Z,100699.19
2022-10-04T00:47:05.218Z,100705.78
2022-10-04T00:49:41.580Z,100700.50
2022-10-04T00:52:15.705Z,100698.66
2022-10-04T00:54:50.179Z,100698.59
2022-10-04T00:57:22.505Z,100695.22
2022-10-04T00:59:53.192Z,100697.00
2022-10-04T01:02:22.327Z,100695.22
2022-10-04T01:04:57.842Z,100699.47
2022-10-04T01:07:29.874Z,100697.66
2022-10-04T01:10:00.877Z,100691.72
2022-10-04T01:12:41.843Z,100695.97
2022-10-04T01:15:15.905Z,100693.19
2022-10-04T01:18:09.330Z,100688.81
2022-10-04T01:20:41.452Z,100683.44
2022-10-04T01:23:11.947Z,100678.38
2022-10-04T01:25:50.588Z,100675.59
2022-10-04T01:28:18.611Z,100674.56
2022-10-04T01:30:46.685Z,100670.13
2022-10-04T01:33:14.524Z,100669.91
2022-10-04T01:35:42.240Z,100669.91
2022-10-04T01:38:09.932Z,100661.25
2022-10-04T01:40:46.812Z,100652.78
2022-10-04T01:43:22.000Z,100656.94
2022-10-04T01:45:54.746Z,100648.38
2022-10-04T01:48:25.605Z,100648.44
2022-10-04T01:50:58.644Z,100640.63
2022-10-04T01:53:29.768Z,100642.22
2022-10-04T01:56:06.901Z,100638.66
2022-10-04T01:58:42.485Z,100631.84
2022-10-04T02:01:15.862Z,100633.44
2022-10-04T02:03:44.552Z,100629.94
2022-10-04T02:06:14.937Z,100632.31
2022-10-04T02:08:49.385Z,100629.75
2022-10-04T02:11:21.801Z,100619.38
2022-10-04T02:13:52.846Z,100626.09
2022-10-04T02:16:22.222Z,100625.22
2022-10-04T02:18:51.776Z,100625.09
2022-10-04T02:21:20.736Z,100620.84
2022-10-04T02:23:49.367Z,100629.34
2022-10-04T02:26:17.002Z,100619.75
2022-10-04T02:28:45.929Z,100630.09
2022-10-04T02:31:31.340Z,100626.59
2022-10-04T02:34:00.725Z,100623.25
2022-10-04T02:36:30.355Z,100616.31
2022-10-04T02:39:03.640Z,100618.75
2022-10-04T02:41:35.659Z,100617.69
2022-10-04T02:44:13.981Z,100609.84
2022-10-04T02:46:47.301Z,100611.47
2022-10-04T02:49:25.495Z,100617.38
2022-10-04T02:52:01.208Z,100618.16
2022-10-04T02:54:31.862Z,100615.63
2022-10-04T02:57:00.696Z,100611.31
2022-10-04T02:59:35.257Z,100616.41
2022-10-04T03:02:03.457Z,100614.50
2022-10-04T03:04:34.436Z,100619.63
2022-10-04T03:07:05.939Z,100611.00
2022-10-04T03:09:36.322Z,100606.59
2022-10-04T03:12:05.252Z,100602.34
2022-10-04T03:14:35.221Z,100593.72
2022-10-04T03:17:04.860Z,100591.34
2022-10-04T03:19:34.364Z,100593.00
2022-10-04T03:22:05.547Z,100587.81
2022-10-04T03:24:37.093Z,100592.13
2022-10-04T03:27:07.715Z,100589.41
2022-10-04T03:29:42.141Z,100581.75
2022-10-04T03:32:13.915Z,100586.88
2022-10-04T03:34:45.356Z,100586.00
2022-10-04T03:37:17.436Z,100579.91
2022-10-04T03:39:47.559Z,100590.06
2022-10-04T03:42:17.471Z,100588.31
2022-10-04T03:44:48.138Z,100589.25
2022-10-04T03:47:20.375Z,100584.94
2022-10-04T03:49:50.971Z,100581.44
2022-10-04T03:52:23.910Z,100571.91
2022-10-04T03:54:54.615Z,100586.41
2022-10-04T03:57:22.690Z,100592.25
2022-10-04T03:59:52.719Z,100589.59
2022-10-04T04:02:35.120Z,100599.81
2022-10-04T04:05:11.300Z,100596.31
2022-10-04T04:07:43.149Z,100598.94
2022-10-04T04:10:19.314Z,100598.25
2022-10-04T04:12:53.441Z,100603.38
2022-10-04T04:15:22.638Z,100607.44
2022-10-04T04:17:53.362Z,100607.38
2022-10-04T04:20:25.856Z,100608.00
2022-10-04T04:23:02.005Z,100607.06
2022-10-04T04:25:32.949Z,100607.84
2022-10-04T04:28:12.834Z,100613.75
2022-10-04T04:30:46.632Z,100609.28
2022-10-04T04:33:22.628Z,100610.88
2022-10-04T04:35:56.237Z,100612.34
2022-10-04T04:38:25.629Z,100608.03
2022-10-04T04:40:55.551Z,100613.78
2022-10-04T04:43:27.360Z,100608.66
2022-10-04T04:46:25.490Z,100606.81
2022-10-04T04:48:49.603Z,100606.03
2022-10-04T04:51:22.796Z,100610.28
2022-10-04T04:53:51.893Z,100619.53
2022-10-04T04:56:23.805Z,100610.09
2022-10-04T04:58:53.735Z,100611.78
2022-10-04T05:01:26.283Z,100606.41
2022-10-04T05:04:05.043Z,100617.38
2022-10-04T05:06:35.907Z,100622.31
2022-10-04T05:09:04.214Z,100621.28
2022-10-04T05:11:33.978Z,100622.00
2022-10-04T05:14:05.770Z,100626.25
2022-10-04T05:16:40.927Z,100618.56
2022-10-04T05:19:16.468Z,100622.88
2022-10-04T05:21:46.686Z,100626.94
2022-10-04T05:24:21.473Z,100632.13
2022-10-04T05:26:52.889Z,100631.16
2022-10-04T05:29:22.844Z,100626.13
2022-10-04T05:32:03.215Z,100630.31
2022-10-04T05:34:37.035Z,100629.41
2022-10-04T05:37:28.688Z,100636.28
2022-10-04T05:40:06.554Z,100637.22
2022-10-04T05:42:38.911Z,100638.03
2022-10-04T05:45:17.237Z,100645.00
2022-10-04T05:47:47.387Z,100646.81
2022-10-04T05:50:18.429Z,100642.53
2022-10-04T05:52:48.031Z,100645.31
2022-10-04T05:55:19.133Z,100653.31
2022-10-04T05:57:57.243Z,100654.38
2022-10-04T06:00:34.541Z,100657.88
2022-10-04T06:03:31.369Z,100642.78
2022-10-04T06:06:03.284Z,100640.47
2022-10-04T06:08:44.586Z,100648.94
2022-10-04T06:11:33.915Z,100643.56
2022-10-04T06:14:21.676Z,100644.09
2022-10-04T06:17:07.227Z,100638.81
2022-10-04T06:19:54.229Z,100641.03
2022-10-04T06:22:23.137Z,100635.69
2022-10-04T06:24:57.025Z,100630.97
2022-10-04T06:27:33.239Z,100618.38
2022-10-04T06:30:04.221Z,100623.81
2022-10-04T06:33:11.444Z,100617.22
2022-10-04T06:35:57.482Z,100622.34
2022-10-04T06:38:48.217Z,100625.91
2022-10-04T06:41:28.268Z,100627.16
2022-10-04T06:44:08.787Z,100624.81
2022-10-04T06:46:44.330Z,100625.25
2022-10-04T06:49:34.350Z,100628.31
2022-10-04T06:52:26.806Z,100642.34
2022-10-04T06:55:18.877Z,100645.28
2022-10-04T06:58:08.299Z,100633.03
2022-10-04T07:00:42.262Z,100640.47
2022-10-04T07:03:15.265Z,100640.06
2022-10-04T07:05:47.110Z,100644.91
2022-10-04T07:08:31.013Z,100646.97
2022-10-04T07:11:04.045Z,100657.84
2022-10-04T07:13:44.827Z,100661.81
2022-10-04T07:16:29.455Z,100664.78
2022-10-04T07:19:09.594Z,100663.19
2022-10-04T07:21:45.373Z,100662.47
2022-10-04T07:24:25.989Z,100661.69
2022-10-04T07:26:55.927Z,100673.81
2022-10-04T07:29:26.286Z,100663.94
2022-10-04T07:32:06.490Z,100667.59
2022-10-04T07:34:37.633Z,100671.22
2022-10-04T07:37:12.549Z,100670.16
2022-10-04T07:39:50.377Z,100668.78
2022-10-04T07:42:26.627Z,100668.72
2022-10-04T07:45:18.876Z,100668.34
2022-10-04T07:47:46.962Z,100665.47
2022-10-04T07:50:21.716Z,100670.06
2022-10-04T07:52:56.926Z,100666.44
2022-10-04T07:55:29.801Z,100668.66
2022-10-04T07:58:14.021Z,100672.66
2022-10-04T08:00:50.146Z,100660.03
2022-10-04T08:03:31.893Z,100659.56
2022-10-04T08:06:11.433Z,100661.56
2022-10-04T08:08:58.082Z,100660.16
2022-10-04T08:11:39.014Z,100658.34
2022-10-04T08:14:23.175Z,100651.00
2022-10-04T08:17:03.341Z,100654.97
2022-10-04T08:19:43.387Z,100646.72
2022-10-04T08:22:23.368Z,100662.50
2022-10-04T08:25:02.396Z,100669.94
2022-10-04T08:28:08.765Z,100666.84
2022-10-04T08:30:51.670Z,100655.88
2022-10-04T08:33:29.852Z,100656.06
2022-10-04T08:36:13.593Z,100662.84
2022-10-04T08:38:49.524Z,100651.69
2022-10-04T08:41:51.115Z,100665.06
2022-10-04T08:45:08.171Z,100668.31
2022-10-04T08:48:25.108Z,100661.94
2022-10-04T08:51:21.817Z,100661.59
2022-10-04T08:54:35.674Z,100660.88
2022-10-04T08:57:21.815Z,100651.94
2022-10-04T09:00:10.384Z,100663.06
2022-10-04T09:03:15.592Z,100656.75
2022-10-04T09:05:59.759Z,100648.63
2022-10-04T09:09:22.465Z,100637.53
2022-10-04T09:12:15.929Z,100638.59
2022-10-04T09:15:04.259Z,100646.59
2022-10-04T09:17:46.378Z,100646.38
2022-10-04T09:20:39.633Z,100647.34
2022-10-04T09:23:23.283Z,100645.88
2022-10-04T09:26:06.334Z,100652.22
2022-10-04T09:29:12.225Z,100642.81
2022-10-04T09:32:01.545Z,100635.63
2022-10-04T09:34:38.781Z,100638.41
2022-10-04T09:37:36.872Z,100649.75
2022-10-04T09:40:49.584Z,100638.56
2022-10-04T09:43:37.106Z,100637.06
2022-10-04T09:46:19.193Z,100643.31
2022-10-04T09:48:59.735Z,100646.91
2022-10-04T09:52:08.839Z,100640.06
2022-10-04T09:55:04.338Z,100641.50
2022-10-04T09:58:01.891Z,100635.69
2022-10-04T10:00:36.760Z,100641.75
2022-10-04T10:03:34.401Z,100645.28
2022-10-04T10:06:40.608Z,100638.88
2022-10-04T10:09:19.425Z,100636.47
2022-10-04T10:12:23.521Z,100635.97
2022-10-04T10:15:17.676Z,100631.25
2022-10-04T10:17:56.463Z,100627.31
2022-10-04T10:20:41.632Z,100630.13
2022-10-04T10:23:48.787Z,100626.72
2022-10-04T10:26:42.021Z,100633.53
2022-10-04T10:29:49.179Z,100621.56
2022-10-04T10:32:36.422Z,100632.06
2022-10-04T10:35:47.074Z,100635.47
2022-10-04T10:38:31.098Z,100625.84
2022-10-04T10:41:20.083Z,100627.56
2022-10-04T10:44:09.831Z,100621.56
2022-10-04T10:46:58.348Z,100624.13
2022-10-04T10:49:54.073Z,100615.38
2022-10-04T10:52:59.247Z,100610.88
2022-10-04T10:55:34.519Z,100602.28
2022-10-04T10:58:36.680Z,100602.59
2022-10-04T11:01:26.630Z,100605.28
2022-10-04T11:04:14.483Z,100599.34
2022-10-04T11:07:18.365Z,100595.75
2022-10-04T11:10:21.596Z,100592.03
2022-10-04T11:13:08.778Z,100585.91
2022-10-04T11:16:14.782Z,100596.41
2022-10-04T11:19:23.423Z,100596.38
2022-10-04T11:22:42.345Z,100590.22
2022-10-04T11:25:36.790Z,100588.97
2022-10-04T11:28:13.787Z,100579.81
2022-10-04T11:31:12.842Z,100586.31
2022-10-04T11:33:58.174Z,100580.69
2022-10-04T11:36:40.077Z,100579.50
2022-10-04T11:39:33.055Z,100580.06
2022-10-04T11:42:13.584Z,100577.13
2022-10-04T11:45:14.460Z,100567.84
2022-10-04T11:47:51.952Z,100555.44
2022-10-04T11:50:31.392Z,100553.72
2022-10-04T11:53:47.974Z,100560.31
2022-10-04T11:56:28.360Z,100554.94
2022-10-04T11:59:08.490Z,100557.44
2022-10-04T12:02:07.280Z,100553.97
2022-10-04T12:05:19.169Z,100548.84
2022-10-04T12:07:57.956Z,100549.66
2022-10-04T12:10:29.911Z,100555.03
2022-10-04T12:13:27.670Z,100552.81
2022-10-04T12:16:13.510Z,100547.03
2022-10-04T12:19:01.877Z,100546.56
2022-10-04T12:21:42.142Z,100545.91
2022-10-04T12:24:19.571Z,100540.50
2022-10-04T12:27:18.746Z,100544.09
2022-10-04T12:30:21.360Z,100535.94
2022-10-04T12:33:03.256Z,100537.09
2022-10-04T12:35:44.507Z,100533.13
2022-10-04T12:38:25.377Z,100531.78
2022-10-04T12:41:01.857Z,100522.13
2022-10-04T12:43:38.364Z,100524.25
2022-10-04T12:46:19.692Z,100533.13
2022-10-04T12:49:00.662Z,100520.22
2022-10-04T12:51:50.752Z,100519.34
2022-10-04T12:54:31.933Z,100510.28
2022-10-04T12:57:10.293Z,100513.72
2022-10-04T12:59:49.349Z,100512.41
2022-10-04T13:02:44.656Z,100515.47
2022-10-04T13:05:18.124Z,100513.63
2022-10-04T13:08:03.463Z,100518.56
2022-10-04T13:10:55.929Z,100518.97
2022-10-04T13:13:40.982Z,100512.22
2022-10-04T13:19:18.409Z,100502.97
2022-10-04T13:22:44.075Z,100505.69
2022-10-04T13:25:29.317Z,100504.94
2022-10-04T13:28:03.818Z,100498.97
2022-10-04T13:30:43.881Z,100507.53
2022-10-04T13:33:24.541Z,100502.81
2022-10-04T13:35:59.333Z,100504.91
2022-10-04T13:38:47.312Z,100496.16
2022-10-04T13:41:31.936Z,100498.31
2022-10-04T13:44:26.080Z,100499.97
2022-10-04T13:47:14.572Z,100498.16
2022-10-04T13:49:55.246Z,100489.16
2022-10-04T13:53:06.586Z,100492.22
2022-10-04T13:56:00.572Z,100490.81
2022-10-04T13:58:42.812Z,100489.34
2022-10-04T14:01:40.129Z,100490.13
2022-10-04T14:04:26.013Z,100485.66
2022-10-04T14:07:17.306Z,100483.53
2022-10-04T14:10:02.032Z,100487.97
2022-10-04T14:13:05.979Z,100481.56
2022-10-04T14:16:06.095Z,100485.78
2022-10-04T14:19:21.111Z,100473.84
2022-10-04T14:22:29.924Z,100467.09
2022-10-04T14:25:21.653Z,100468.94
2022-10-04T14:28:17.940Z,100463.09
2022-10-04T14:31:05.163Z,100459.63
2022-10-04T14:33:54.635Z,100455.03
2022-10-04T14:36:50.623Z,100446.47
2022-10-04T14:39:35.810Z,100443.09
2022-10-04T14:42:36.129Z,100451.09
2022-10-04T14:45:21.131Z,100439.38
2022-10-04T14:48:08.779Z,100444.34
2022-10-04T14:50:57.628Z,100441.53
2022-10-04T14:53:35.412Z,100436.16
2022-10-04T14:56:32.716Z,100440.50
2022-10-04T14:59:17.796Z,100440.44
2022-10-04T15:02:08.044Z,100437.44
2022-10-04T15:04:58.142Z,100432.28
2022-10-04T15:07:33.571Z,100431.47
2022-10-04T15:10:11.237Z,100418.63
2022-10-04T15:13:10.051Z,100429.03
2022-10-04T15:15:59.803Z,100430.31
2022-10-04T15:18:45.080Z,100434.44
2022-10-04T15:21:33.647Z,100424.28
2022-10-04T15:24:24.045Z,100432.00
2022-10-04T15:27:07.369Z,100427.88
2022-10-04T15:29:46.092Z,100423.78
2022-10-04T15:32:25.343Z,100431.19
2022-10-04T15:35:05.949Z,100427.84
2022-10-04T15:37:43.971Z,100425.94
2022-10-04T15:40:25.120Z,100411.91
2022-10-04T15:43:04.370Z,100407.19
2022-10-04T15:45:50.448Z,100408.09
2022-10-04T15:48:36.568Z,100403.19
2022-10-04T15:51:12.725Z,100400.63
2022-10-04T15:54:04.646Z,100393.50
2022-10-04T15:56:44.577Z,100407.84
2022-10-04T15:59:33.138Z,100401.25
2022-10-04T16:02:22.136Z,100403.38
2022-10-04T16:05:04.172Z,100398.44
2022-10-04T16:07:42.575Z,100399.28
2022-10-04T16:10:19.800Z,100389.69
2022-10-04T16:13:28.811Z,100392.75
2022-10-04T16:16:26.108Z,100392.41
2022-10-04T16:19:05.618Z,100395.19
2022-10-04T16:21:42.290Z,100398.66
2022-10-04T16:24:46.700Z,100401.09
2022-10-04T16:27:35.387Z,100408.59
2022-10-04T16:30:26.906Z,100402.03
2022-10-04T16:33:11.455Z,100411.44
2022-10-04T16:35:46.327Z,100415.88
2022-10-04T16:38:24.734Z,100408.38
2022-10-04T16:41:14.683Z,100414.25
2022-10-04T16:43:53.647Z,100412.38
2022-10-04T16:46:30.675Z,100411.94
2022-10-04T16:49:03.921Z,100415.31
2022-10-04T16:51:43.649Z,100423.72
2022-10-04T16:54:38.708Z,100417.47
2022-10-04T16:57:19.607Z,100414.28
2022-10-04T16:59:53.908Z,100408.44
2022-10-04T17:02:41.251Z,100403.31
2022-10-04T17:05:25.434Z,100407.78
2022-10-04T17:08:11.790Z,100399.22
2022-10-04T17:10:54.673Z,100404.56
2022-10-04T17:13:26.513Z,100395.00
2022-10-04T17:16:06.478Z,100388.06
2022-10-04T17:18:45.614Z,100379.38
2022-10-04T17:21:29.115Z,100378.47
2022-10-04T17:24:21.642Z,100377.53
2022-10-04T17:27:05.748Z,100382.69
2022-10-04T17:29:48.878Z,100393.91
2022-10-04T17:32:27.275Z,100399.00
2022-10-04T17:35:08.995Z,100398.84
2022-10-04T17:37:47.225Z,100399.50
2022-10-04T17:40:29.121Z,100402.88
2022-10-04T17:43:06.685Z,100408.75
2022-10-04T17:45:53.296Z,100412.94
2022-10-04T17:48:42.782Z,100410.19
2022-10-04T17:51:34.459Z,100405.75
2022-10-04T17:54:30.033Z,100411.72
2022-10-04T17:57:16.024Z,100416.75
2022-10-04T17:59:46.899Z,100417.47
2022-10-04T18:02:21.090Z,100423.28
2022-10-04T18:04:54.437Z,100430.03
2022-10-04T18:07:25.862Z,100430.78
2022-10-04T18:09:57.446Z,100436.75
2022-10-04T18:12:29.437Z,100430.63
2022-10-04T18:15:03.182Z,100429.69
2022-10-04T18:17:35.709Z,100437.22
2022-10-04T18:20:27.036Z,100434.53
2022-10-04T18:23:01.194Z,100440.44
2022-10-04T18:25:32.043Z,100430.75
2022-10-04T18:28:12.371Z,100434.13
2022-10-04T18:30:58.991Z,100439.09
2022-10-04T18:33:45.028Z,100449.31
2022-10-04T18:36:16.269Z,100445.81
2022-10-04T18:38:46.179Z,100454.34
2022-10-04T18:41:21.251Z,100447.09
2022-10-04T18:43:53.636Z,100451.84
2022-10-04T18:46:22.719Z,100460.41
2022-10-04T18:48:55.135Z,100466.31
2022-10-04T18:51:27.271Z,100458.47
2022-10-04T18:54:16.093Z,100462.66
2022-10-04T18:56:54.918Z,100461.75
2022-10-04T18:59:51.078Z,100463.41
2022-10-04T19:02:26.035Z,100458.09
2022-10-04T19:05:02.707Z,100470.06
2022-10-04T19:07:38.689Z,100469.00
2022-10-04T19:10:18.845Z,100463.72
2022-10-04T19:13:06.993Z,100467.16
2022-10-04T19:15:44.007Z,100466.06
2022-10-04T19:18:23.945Z,100469.41
2022-10-04T19:20:59.316Z,100462.50
2022-10-04T19:23:35.669Z,100475.31
2022-10-04T19:26:31.108Z,100473.50
2022-10-04T19:29:08.889Z,100482.06
2022-10-04T19:31:47.222Z,100490.75
2022-10-04T19:34:20.129Z,100484.59
2022-10-04T19:36:54.454Z,100492.25
2022-10-04T19:39:38.988Z,100490.44
2022-10-04T19:42:13.431Z,100496.34
2022-10-04T19:45:02.773Z,100504.78
2022-10-04T19:47:41.563Z,100509.88
2022-10-04T19:50:21.073Z,100509.78
2022-10-04T19:52:53.496Z,100514.84
2022-10-04T19:55:26.253Z,100519.91
2022-10-04T19:58:01.455Z,100518.19
2022-10-04T20:00:30.392Z,100528.34
2022-10-04T20:02:57.957Z,100529.94
2022-10-04T20:05:25.817Z,100527.25
2022-10-04T20:07:57.448Z,100526.28
2022-10-04T20:10:34.472Z,100533.84
2022-10-04T20:13:16.664Z,100531.19
2022-10-04T20:15:48.418Z,100531.13
2022-10-04T20:19:05.031Z,100531.91
2022-10-04T20:21:32.785Z,100530.97
2022-10-04T20:24:01.494Z,100530.88
2022-10-04T20:27:06.488Z,100542.75
2022-10-04T20:30:04.005Z,100545.16
2022-10-04T20:33:01.936Z,100545.84
2022-10-04T20:36:08.791Z,100535.34
2022-10-04T20:38:52.948Z,100548.19
2022-10-04T20:42:17.572Z,100554.06
2022-10-04T20:44:55.189Z,100545.31
2022-10-04T20:47:32.778Z,100555.50
2022-10-04T20:50:03.012Z,100560.59
2022-10-04T20:52:33.085Z,100557.09
2022-10-04T20:55:02.847Z,100552.72
2022-10-04T20:57:31.041Z,100559.56
2022-10-04T20:59:59.401Z,100561.25
2022-10-04T21:02:28.483Z,100563.72
2022-10-04T21:05:14.560Z,100563.63
2022-10-04T21:07:42.101Z,100565.31
2022-10-04T21:10:17.914Z,100570.44
2022-10-04T21:12:45.691Z,100572.13
2022-10-04T21:15:21.573Z,100569.53
2022-10-04T21:18:03.781Z,100570.34
2022-10-04T21:20:45.327Z,100568.53
2022-10-04T21:23:20.996Z,100571.81
2022-10-04T21:25:48.577Z,100579.47
2022-10-04T21:28:35.787Z,100569.09
2022-10-04T21:31:04.412Z,100565.53
2022-10-04T21:33:33.027Z,100566.19
2022-10-04T21:36:01.932Z,100565.31
2022-10-04T21:38:29.801Z,100566.00
2022-10-04T21:40:57.750Z,100565.91
2022-10-04T21:43:26.132Z,100564.06
2022-10-04T21:45:53.698Z,100557.06
2022-10-04T21:48:23.097Z,100561.28
2022-10-04T21:50:52.374Z,100551.66
2022-10-04T21:53:21.991Z,100553.25
2022-10-04T21:55:49.503Z,100558.22
2022-10-04T21:58:17.027Z,100554.63
2022-10-04T22:00:44.619Z,100556.28
2022-10-04T22:03:12.234Z,100550.13
2022-10-04T22:05:39.745Z,100544.03
2022-10-04T22:08:07.287Z,100543.81
2022-10-04T22:10:36.195Z,100539.44
2022-10-04T22:13:03.815Z,100549.72
2022-10-04T22:15:31.395Z,100539.34
2022-10-04T22:17:58.916Z,100540.16
2022-10-04T22:20:26.855Z,100538.47
2022-10-04T22:22:55.518Z,100534.09
2022-10-04T22:25:25.178Z,100545.16
2022-10-04T22:27:54.711Z,100550.22
2022-10-04T22:30:25.524Z,100553.59
2022-10-04T22:32:56.032Z,100543.25
2022-10-04T22:35:23.722Z,100543.22
2022-10-04T22:37:51.704Z,100539.75
2022-10-04T22:40:22.016Z,100531.94
2022-10-04T22:42:56.483Z,100520.78
2022-10-04T22:45:25.815Z,100523.34
2022-10-04T22:47:54.351Z,100521.38
2022-10-04T22:50:30.360Z,100525.59
2022-10-04T22:52:58.468Z,100523.84
2022-10-04T22:55:26.512Z,100513.47
2022-10-04T22:57:56.019Z,100516.78
2022-10-04T23:00:23.621Z,100511.59
2022-10-04T23:02:51.209Z,100523.53
2022-10-04T23:05:20.905Z,100519.16
2022-10-04T23:07:49.639Z,100526.84
2022-10-04T23:10:19.551Z,100513.03
2022-10-04T23:12:48.947Z,100518.16
2022-10-04T23:15:20.252Z,100513.72
2022-10-04T23:17:54.205Z,100519.63
2022-10-04T23:20:22.327Z,100521.22
2022-10-04T23:22:51.396Z,100512.47
2022-10-04T23:25:21.348Z,100511.53
2022-10-04T23:27:49.186Z,100513.16
2022-10-04T23:30:20.078Z,100515.66
2022-10-04T23:32:50.072Z,100508.63
2022-10-04T23:35:20.847Z,100503.50
2022-10-04T23:37:49.172Z,100496.59
2022-10-04T23:40:19.743Z,100501.63
2022-10-04T23:42:49.699Z,100507.63
2022-10-04T23:45:21.956Z,100493.88
2022-10-04T23:47:51.942Z,100489.59
2022-10-04T23:50:23.683Z,100487.72
2022-10-04T23:52:53.005Z,100490.31
2022-10-04T23:55:23.111Z,100482.50
2022-10-04T23:57:51.549Z,100491.03
